createdAt,value
2022-12-01T00:00:40.076Z,6.50
2022-12-01T00:05:43.985Z,6.55
2022-12-01T00:10:46.760Z,6.66
2022-12-01T00:15:48.618Z,6.19
2022-12-01T00:20:55.995Z,6.37
2022-12-01T00:26:05.311Z,6.54
2022-12-01T00:31:08.684Z,6.48
2022-12-01T00:36:10.765Z,6.16
2022-12-01T00:41:12.651Z,5.97
2022-12-01T00:46:14.648Z,5.70
2022-12-01T00:51:16.662Z,5.90
2022-12-01T00:56:18.803Z,6.31
2022-12-01T01:01:20.808Z,6.23
2022-12-01T01:06:22.769Z,6.07
2022-12-01T01:11:25.203Z,6.31
2022-12-01T01:16:27.339Z,5.97
2022-12-01T01:21:29.292Z,6.43
2022-12-01T01:26:32.670Z,6.15
2022-12-01T01:31:35.179Z,6.52
2022-12-01T01:36:37.075Z,6.51
2022-12-01T01:41:39.032Z,6.64
2022-12-01T01:46:40.947Z,6.63
2022-12-01T01:51:51.361Z,6.38
2022-12-01T01:56:55.304Z,6.07
2022-12-01T02:02:03.673Z,5.94
2022-12-01T02:07:07.076Z,6.20
2022-12-01T02:12:17.203Z,6.00
2022-12-01T02:17:43.041Z,5.89
2022-12-01T02:23:03.635Z,5.72
2022-12-01T02:28:24.779Z,5.74
2022-12-01T02:33:53.149Z,5.45
2022-12-01T02:39:09.370Z,5.42
2022-12-01T02:44:19.807Z,5.81
2022-12-01T02:49:26.787Z,5.67
2022-12-01T02:54:31.225Z,5.40
2022-12-01T02:59:33.346Z,5.52
2022-12-01T03:04:56.801Z,5.56
2022-12-01T03:10:37.080Z,5.89
2022-12-01T03:16:25.604Z,5.87
2022-12-01T03:21:35.256Z,5.34
2022-12-01T03:26:38.972Z,5.54
2022-12-01T03:31:43.368Z,5.84
2022-12-01T03:36:50.227Z,5.70
2022-12-01T03:41:59.092Z,5.46
2022-12-01T03:47:04.873Z,5.23
2022-12-01T03:52:38.872Z,5.33
2022-12-01T03:58:05.639Z,5.52
2022-12-01T04:03:07.786Z,5.45
2022-12-01T04:08:09.753Z,5.57
2022-12-01T04:13:22.977Z,5.78
2022-12-01T04:18:25.038Z,5.77
2022-12-01T04:23:45.652Z,5.81
2022-12-01T04:28:47.957Z,5.90
2022-12-01T04:33:50.121Z,5.96
2022-12-01T04:38:52.502Z,5.67
2022-12-01T04:43:55.176Z,5.68
2022-12-01T04:48:57.078Z,5.94
2022-12-01T04:53:58.937Z,6.05
2022-12-01T04:59:00.956Z,6.11
2022-12-01T05:04:03.179Z,5.98
2022-12-01T05:09:05.734Z,6.05
2022-12-01T05:14:07.733Z,6.01
2022-12-01T05:19:28.370Z,6.12
2022-12-01T05:24:30.199Z,5.93
2022-12-01T05:29:33.036Z,6.21
2022-12-01T05:34:35.029Z,5.80
2022-12-01T05:39:36.962Z,6.16
2022-12-01T05:44:38.844Z,6.06
2022-12-01T05:49:40.699Z,5.78
2022-12-01T05:54:43.178Z,5.64
2022-12-01T05:59:45.123Z,5.49
2022-12-01T06:04:47.187Z,5.18
2022-12-01T06:09:49.819Z,5.68
2022-12-01T06:14:51.933Z,5.71
2022-12-01T06:19:53.841Z,5.90
2022-12-01T06:24:55.700Z,5.69
2022-12-01T06:29:57.629Z,5.76
2022-12-01T06:34:59.580Z,5.98
2022-12-01T06:40:01.492Z,6.05
2022-12-01T06:45:04.672Z,5.74
2022-12-01T06:50:08.719Z,5.36
2022-12-01T06:55:10.652Z,5.67
2022-12-01T07:00:13.536Z,5.61
2022-12-01T07:05:16.241Z,5.77
2022-12-01T07:10:18.297Z,5.48
2022-12-01T07:15:20.296Z,6.08
2022-12-01T07:20:22.238Z,5.81
2022-12-01T07:25:24.249Z,5.64
2022-12-01T07:30:28.579Z,5.46
2022-12-01T07:35:30.871Z,5.82
2022-12-01T07:40:32.730Z,5.81
2022-12-01T07:45:34.672Z,5.78
2022-12-01T07:50:36.717Z,5.72
2022-12-01T07:55:38.561Z,5.65
2022-12-01T08:00:40.704Z,5.53
2022-12-01T08:05:42.812Z,5.80
2022-12-01T08:10:44.672Z,5.59
2022-12-01T08:15:46.772Z,6.08
2022-12-01T08:20:49.892Z,6.21
2022-12-01T08:25:52.617Z,5.83
2022-12-01T08:30:54.571Z,6.06
2022-12-01T08:35:56.440Z,6.16
2022-12-01T08:41:03.583Z,6.24
2022-12-01T08:46:13.560Z,5.90
2022-12-01T08:51:21.640Z,6.15
2022-12-01T08:56:27.445Z,5.97
2022-12-01T09:01:29.599Z,6.34
2022-12-01T09:06:34.589Z,6.37
2022-12-01T09:11:36.604Z,6.60
2022-12-01T09:16:39.773Z,6.51
2022-12-01T09:21:43.401Z,6.23
2022-12-01T09:26:45.292Z,6.48
2022-12-01T09:31:47.243Z,6.41
2022-12-01T09:36:49.557Z,6.02
2022-12-01T09:41:59.522Z,5.81
2022-12-01T09:47:19.213Z,5.97
2022-12-01T09:52:24.033Z,6.58
2022-12-01T09:57:35.331Z,6.26
2022-12-01T10:02:51.043Z,6.42
2022-12-01T10:08:05.790Z,6.66
2022-12-01T10:13:28.101Z,6.75
2022-12-01T10:18:53.500Z,6.84
2022-12-01T10:24:01.381Z,6.76
2022-12-01T10:29:13.980Z,6.55
2022-12-01T10:34:31.046Z,7.00
2022-12-01T10:39:37.940Z,6.82
2022-12-01T10:44:40.417Z,6.97
2022-12-01T10:49:42.638Z,6.20
2022-12-01T10:54:44.610Z,6.19
2022-12-01T10:59:52.275Z,6.27
2022-12-01T11:05:04.249Z,6.23
2022-12-01T11:10:18.557Z,6.16
2022-12-01T11:15:24.335Z,5.84
2022-12-01T11:20:38.040Z,6.11
2022-12-01T11:25:39.961Z,5.64
2022-12-01T11:30:41.866Z,5.41
2022-12-01T11:35:49.171Z,5.49
2022-12-01T11:40:59.940Z,5.71
2022-12-01T11:46:06.414Z,6.08
2022-12-01T11:51:18.233Z,6.16
2022-12-01T11:56:23.803Z,6.00
2022-12-01T12:01:51.474Z,6.01
2022-12-01T12:06:58.888Z,6.00
2022-12-01T12:12:10.009Z,6.12
2022-12-01T12:17:44.012Z,5.70
2022-12-01T12:23:04.159Z,5.97
2022-12-01T12:28:22.793Z,5.70
2022-12-01T12:33:36.368Z,6.19
2022-12-01T12:38:58.237Z,5.53
2022-12-01T12:44:46.797Z,5.55
2022-12-01T12:50:29.860Z,5.38
2022-12-01T12:55:45.891Z,5.25
2022-12-01T13:00:57.540Z,5.21
2022-12-01T13:06:05.762Z,5.31
2022-12-01T13:11:22.049Z,5.55
2022-12-01T13:16:33.020Z,5.25
2022-12-01T13:21:41.767Z,5.11
2022-12-01T13:26:47.034Z,5.01
2022-12-01T13:31:52.212Z,4.67
2022-12-01T13:36:56.160Z,4.74
2022-12-01T13:42:19.912Z,4.96
2022-12-01T13:47:24.725Z,4.63
2022-12-01T13:52:29.608Z,4.75
2022-12-01T13:57:37.581Z,4.53
2022-12-01T14:02:39.776Z,4.49
2022-12-01T14:07:42.234Z,4.63
2022-12-01T14:12:46.339Z,4.75
2022-12-01T14:17:57.917Z,4.63
2022-12-01T14:23:13.207Z,4.32
2022-12-01T14:28:17.417Z,4.36
2022-12-01T14:33:38.966Z,4.57
2022-12-01T14:38:42.177Z,4.19
2022-12-01T14:44:03.353Z,4.18
2022-12-01T14:49:06.344Z,4.26
2022-12-01T14:54:15.373Z,4.43
2022-12-01T14:59:24.258Z,4.53
2022-12-01T15:04:26.255Z,4.23
2022-12-01T15:09:36.195Z,4.36
2022-12-01T15:14:47.007Z,4.29
2022-12-01T15:19:49.676Z,4.46
2022-12-01T15:24:52.114Z,4.16
2022-12-01T15:29:55.531Z,4.01
2022-12-01T15:35:01.872Z,4.26
2022-12-01T15:40:59.647Z,3.80
2022-12-01T15:45:43.372Z,3.98
2022-12-01T15:51:08.980Z,3.78
2022-12-01T15:56:12.051Z,3.82
2022-12-01T16:01:21.268Z,3.72
2022-12-01T16:06:28.937Z,3.90
2022-12-01T16:11:30.852Z,3.72
2022-12-01T16:16:45.156Z,3.29
2022-12-01T16:21:56.204Z,3.54
2022-12-01T16:27:04.305Z,3.25
2022-12-01T16:32:21.291Z,3.43
2022-12-01T16:37:23.769Z,3.49
2022-12-01T16:42:25.876Z,3.54
2022-12-01T16:47:31.828Z,3.77
2022-12-01T16:52:44.589Z,3.41
2022-12-01T16:57:53.833Z,3.74
2022-12-01T17:03:00.506Z,3.72
2022-12-01T17:08:02.570Z,3.74
2022-12-01T17:13:04.497Z,3.88
2022-12-01T17:18:06.461Z,3.79
2022-12-01T17:23:08.885Z,3.53
2022-12-01T17:28:10.756Z,3.18
2022-12-01T17:33:13.532Z,3.88
2022-12-01T17:38:15.473Z,3.58
2022-12-01T17:43:17.436Z,3.61
2022-12-01T17:48:19.365Z,3.86
2022-12-01T17:53:21.302Z,3.71
2022-12-01T17:58:31.360Z,3.92
2022-12-01T18:03:36.439Z,3.59
2022-12-01T18:08:39.697Z,3.78
2022-12-01T18:13:44.130Z,3.92
2022-12-01T18:18:46.284Z,3.80
2022-12-01T18:23:58.417Z,3.88
2022-12-01T18:29:04.839Z,3.46
2022-12-01T18:34:07.569Z,3.54
2022-12-01T18:39:17.155Z,3.67
2022-12-01T18:44:25.791Z,3.67
2022-12-01T18:49:27.946Z,3.62
2022-12-01T18:54:29.925Z,3.73
2022-12-01T18:59:31.883Z,3.90
2022-12-01T19:04:35.499Z,4.05
2022-12-01T19:09:37.371Z,3.74
2022-12-01T19:14:39.481Z,3.84
2022-12-01T19:19:44.377Z,4.07
2022-12-01T19:24:50.239Z,3.85
2022-12-01T19:29:54.089Z,3.87
2022-12-01T19:34:56.258Z,3.80
2022-12-01T19:39:58.202Z,3.61
2022-12-01T19:45:01.196Z,3.35
2022-12-01T19:50:03.924Z,2.81
2022-12-01T19:55:06.348Z,3.53
2022-12-01T20:00:10.473Z,3.88
2022-12-01T20:05:16.119Z,3.94
2022-12-01T20:10:20.249Z,3.05
2022-12-01T20:15:22.217Z,3.02
2022-12-01T20:20:24.212Z,3.18
2022-12-01T20:25:26.452Z,2.69
2022-12-01T20:30:28.325Z,3.02
2022-12-01T20:35:30.471Z,2.69
2022-12-01T20:40:32.389Z,2.65
2022-12-01T20:45:34.341Z,2.81
2022-12-01T20:50:36.293Z,2.94
2022-12-01T20:55:38.359Z,3.08
2022-12-01T21:00:45.974Z,3.39
2022-12-01T21:05:48.264Z,3.50
2022-12-01T21:10:50.339Z,2.84
2022-12-01T21:16:01.643Z,2.95
2022-12-01T21:21:10.261Z,3.16
2022-12-01T21:26:19.107Z,3.10
2022-12-01T21:31:21.181Z,2.79
2022-12-01T21:36:26.195Z,2.96
2022-12-01T21:41:30.197Z,3.47
2022-12-01T21:46:32.327Z,3.01
2022-12-01T21:51:34.300Z,3.24
2022-12-01T21:56:36.326Z,3.00
2022-12-01T22:01:40.393Z,3.02
2022-12-01T22:06:46.422Z,2.97
2022-12-01T22:11:52.896Z,3.09
2022-12-01T22:16:58.084Z,3.24
2022-12-01T22:22:09.183Z,3.29
2022-12-01T22:27:25.578Z,3.19
2022-12-01T22:32:38.165Z,3.35
2022-12-01T22:37:53.503Z,3.41
2022-12-01T22:42:55.491Z,3.34
2022-12-01T22:48:01.959Z,2.98
2022-12-01T22:53:14.215Z,2.56
2022-12-01T22:58:33.184Z,2.58
2022-12-01T23:03:35.137Z,2.82
2022-12-01T23:08:37.141Z,3.14
2022-12-01T23:13:39.019Z,2.74
2022-12-01T23:18:40.959Z,2.27
2022-12-01T23:23:42.904Z,3.06
2022-12-01T23:28:45.004Z,2.29
2022-12-01T23:33:53.523Z,2.86
2022-12-01T23:38:58.736Z,2.83
2022-12-01T23:44:08.805Z,2.65
2022-12-01T23:49:15.750Z,2.72
2022-12-01T23:54:27.296Z,2.64
2022-12-01T23:59:30.925Z,2.38
